Time;durP1;ratioP1;P1;durP2;ratioP2;P2;SDS_P1;SDS_P2;PMS_P1;PMS_P2;Temp;Humidity;BMP_temperature;BMP_pressure;BME280_temperature;BME280_humidity;BME280_pressure;Samples;Min_cycle;Max_cycle;Signal;HPM_P1;HPM_P2
2024/04/10 00:01:36;;;;;;;1.13;1.08;;;6.80;99.90;;;;;;5358994;26;20422;-36
2024/04/10 00:04:02;;;;;;;2.60;1.52;;;6.80;99.90;;;;;;5367441;26;20007;-40
2024/04/10 00:06:28;;;;;;;1.38;1.30;;;6.80;99.90;;;;;;5361746;26;20015;-39
2024/04/10 00:08:53;;;;;;;2.33;1.10;;;6.70;99.90;;;;;;5365759;26;20537;-39
2024/04/10 00:11:22;;;;;;;1.50;1.40;;;6.70;99.90;;;;;;5371055;26;19996;-39
2024/04/10 00:13:48;;;;;;;1.05;1.05;;;6.70;99.90;;;;;;5374657;26;20555;-42
2024/04/10 00:16:13;;;;;;;2.55;1.23;;;6.60;99.90;;;;;;5378686;26;20000;-35
2024/04/10 00:18:39;;;;;;;1.73;1.63;;;6.60;99.90;;;;;;5362410;26;20977;-37
2024/04/10 00:21:04;;;;;;;1.08;1.08;;;6.70;99.90;;;;;;5362486;26;20008;-43
2024/04/10 00:23:30;;;;;;;1.60;1.50;;;6.70;99.90;;;;;;5360230;26;20378;-40
2024/04/10 00:26:05;;;;;;;1.38;1.27;;;6.70;99.90;;;;;;5369960;26;20502;-40
2024/04/10 00:28:31;;;;;;;1.52;1.42;;;6.70;99.90;;;;;;5367448;26;20985;-41
2024/04/10 00:30:59;;;;;;;1.27;1.15;;;6.60;99.90;;;;;;5368576;26;20019;-41
2024/04/10 00:33:24;;;;;;;2.28;1.60;;;6.60;99.90;;;;;;5366338;26;20030;-40
2024/04/10 00:36:00;;;;;;;0.90;0.90;;;6.70;99.90;;;;;;5362257;26;20028;-36
2024/04/10 00:38:27;;;;;;;1.77;1.58;;;6.60;99.90;;;;;;5361236;26;20073;-40
2024/04/10 00:41:06;;;;;;;1.75;1.48;;;6.70;99.90;;;;;;5362021;26;20003;-40
2024/04/10 00:43:33;;;;;;;1.20;1.20;;;6.70;99.90;;;;;;5369835;26;19996;-38
2024/04/10 00:46:15;;;;;;;1.20;1.10;;;6.60;99.90;;;;;;5367285;26;20132;-36
2024/04/10 00:48:41;;;;;;;1.35;1.25;;;6.60;99.90;;;;;;5360835;26;20464;-40
2024/04/10 00:51:10;;;;;;;1.00;0.95;;;6.60;99.90;;;;;;5373752;26;20013;-34
2024/04/10 00:53:36;;;;;;;1.75;1.63;;;6.60;99.90;;;;;;5361686;26;20052;-38
2024/04/10 00:56:03;;;;;;;2.25;1.13;;;6.70;99.90;;;;;;5357191;26;20001;-42
2024/04/10 00:58:32;;;;;;;0.95;0.95;;;6.70;99.90;;;;;;5371096;26;20469;-37
2024/04/10 01:00:58;;;;;;;1.25;1.25;;;6.60;99.90;;;;;;5363682;26;20000;-37
2024/04/10 01:03:24;;;;;;;1.40;1.27;;;6.60;99.90;;;;;;5369992;26;20004;-34
2024/04/10 01:06:04;;;;;;;1.80;1.27;;;6.60;99.90;;;;;;5376112;26;20011;-36
2024/04/10 01:08:31;;;;;;;1.33;1.10;;;6.70;99.90;;;;;;5362485;26;20003;-32
2024/04/10 01:11:01;;;;;;;1.65;1.55;;;6.70;99.90;;;;;;5369689;26;20503;-32
2024/04/10 01:13:28;;;;;;;1.25;1.25;;;6.60;99.90;;;;;;5370513;26;20472;-33
2024/04/10 01:15:54;;;;;;;1.40;1.30;;;6.60;99.90;;;;;;5367265;26;20511;-35
2024/04/10 01:18:19;;;;;;;1.63;1.52;;;6.60;99.90;;;;;;5372416;26;20016;-38
2024/04/10 01:20:46;;;;;;;1.60;1.50;;;6.60;99.90;;;;;;5366125;26;20354;-32
2024/04/10 01:23:11;;;;;;;2.05;1.70;;;6.60;99.90;;;;;;5367714;26;20008;-35
2024/04/10 01:25:37;;;;;;;1.73;1.60;;;6.60;99.90;;;;;;5374515;26;20992;-33
2024/04/10 01:28:03;;;;;;;1.80;1.70;;;6.60;99.90;;;;;;5367843;26;20008;-40
2024/04/10 01:30:29;;;;;;;1.80;1.70;;;6.60;99.90;;;;;;5368967;26;20479;-32
2024/04/10 01:32:55;;;;;;;1.75;1.65;;;6.70;99.90;;;;;;5361078;26;20004;-34
2024/04/10 01:35:21;;;;;;;1.77;1.67;;;6.70;99.90;;;;;;5364191;26;20473;-38
2024/04/10 01:37:46;;;;;;;1.40;1.30;;;6.70;99.90;;;;;;5376154;26;20000;-33
2024/04/10 01:40:12;;;;;;;1.92;1.73;;;6.70;99.90;;;;;;5364386;26;20698;-32
2024/04/10 01:42:43;;;;;;;2.45;1.95;;;6.70;99.90;;;;;;5363685;26;20032;-34
2024/04/10 01:45:09;;;;;;;2.95;1.80;;;6.80;99.90;;;;;;5375739;26;20085;-37
2024/04/10 01:47:35;;;;;;;2.30;1.80;;;6.70;99.90;;;;;;5377714;26;20004;-33
2024/04/10 01:50:00;;;;;;;1.48;1.42;;;6.70;99.90;;;;;;5371668;26;20004;-35
2024/04/10 01:52:26;;;;;;;1.70;1.60;;;6.70;99.90;;;;;;5363908;26;20032;-33
2024/04/10 01:54:52;;;;;;;1.75;1.65;;;6.70;99.90;;;;;;5359883;26;19992;-33
2024/04/10 01:57:18;;;;;;;2.97;2.00;;;6.80;99.90;;;;;;5370559;26;20012;-34
2024/04/10 01:59:44;;;;;;;1.65;1.55;;;6.70;99.90;;;;;;5368464;26;20007;-32
2024/04/10 02:02:10;;;;;;;1.70;1.60;;;6.70;99.90;;;;;;5368059;26;19996;-33
2024/04/10 02:04:35;;;;;;;2.05;1.70;;;6.70;99.90;;;;;;5379864;26;20477;-39
2024/04/10 02:07:02;;;;;;;3.05;1.90;;;6.60;99.90;;;;;;5373575;26;20473;-32
2024/04/10 02:09:28;;;;;;;1.90;1.80;;;6.60;99.90;;;;;;5376501;26;19997;-33
2024/04/10 02:11:53;;;;;;;3.05;1.98;;;6.50;99.90;;;;;;5369944;26;20000;-33
2024/04/10 02:14:19;;;;;;;2.20;2.00;;;6.60;99.90;;;;;;5362766;26;20073;-33
2024/04/10 02:16:46;;;;;;;2.10;1.90;;;6.60;99.90;;;;;;5366845;26;20000;-32
2024/04/10 02:19:12;;;;;;;2.13;1.92;;;6.60;99.90;;;;;;5367928;26;20520;-38
2024/04/10 02:21:38;;;;;;;2.47;1.48;;;6.60;99.90;;;;;;5370136;26;20016;-32
2024/04/10 02:24:06;;;;;;;1.75;1.65;;;6.60;99.90;;;;;;5376899;26;20069;-34
2024/04/10 02:26:32;;;;;;;1.58;1.48;;;6.60;99.90;;;;;;5367872;26;20019;-32
2024/04/10 02:28:57;;;;;;;2.22;2.05;;;6.60;99.90;;;;;;5365807;26;20000;-32
2024/04/10 02:31:23;;;;;;;2.60;1.90;;;6.60;99.90;;;;;;5363796;26;20004;-32
2024/04/10 02:33:48;;;;;;;2.17;1.98;;;6.60;99.90;;;;;;5364460;26;20027;-37
2024/04/10 02:36:14;;;;;;;1.90;1.80;;;6.50;99.90;;;;;;5370028;26;20001;-35
2024/04/10 02:38:39;;;;;;;1.92;1.83;;;6.50;99.90;;;;;;5371691;26;20015;-38
2024/04/10 02:41:05;;;;;;;2.20;1.40;;;6.50;99.90;;;;;;5366991;26;20023;-32
2024/04/10 02:43:31;;;;;;;1.52;1.38;;;6.60;99.90;;;;;;5367230;26;20608;-32
2024/04/10 02:45:57;;;;;;;2.67;1.90;;;6.50;99.90;;;;;;5368152;26;20007;-32
2024/04/10 02:48:24;;;;;;;2.47;2.13;;;6.50;99.90;;;;;;5372017;26;20164;-34
2024/04/10 02:50:50;;;;;;;2.38;2.17;;;6.50;99.90;;;;;;5369614;26;20000;-38
2024/04/10 02:53:16;;;;;;;2.08;1.80;;;6.50;99.90;;;;;;5369119;26;20032;-36
2024/04/10 02:55:43;;;;;;;4.63;2.42;;;6.60;99.90;;;;;;5367757;26;20004;-34
2024/04/10 02:58:10;;;;;;;1.98;1.83;;;6.60;99.90;;;;;;5377868;26;20335;-35
2024/04/10 03:00:44;;;;;;;2.00;1.90;;;6.60;99.90;;;;;;5369997;26;20001;-33
2024/04/10 03:03:09;;;;;;;2.45;2.08;;;6.60;99.90;;;;;;5362409;26;20044;-34
2024/04/10 03:05:35;;;;;;;4.22;1.88;;;6.60;99.90;;;;;;5396499;26;20001;-33
2024/04/10 03:08:01;;;;;;;2.08;1.98;;;6.60;99.90;;;;;;5381822;26;20011;-33
2024/04/10 03:10:26;;;;;;;1.80;1.70;;;6.60;99.90;;;;;;5358052;26;20000;-31
2024/04/10 03:12:52;;;;;;;1.98;1.88;;;6.50;99.90;;;;;;5379756;26;20004;-34
2024/04/10 03:15:17;;;;;;;2.70;1.88;;;6.50;99.90;;;;;;5377837;26;20028;-34
2024/04/10 03:17:46;;;;;;;1.90;1.70;;;6.40;99.90;;;;;;5379386;26;20051;-34
2024/04/10 03:20:12;;;;;;;;;;;6.40;99.90;;;;;;5364976;26;20914;-33
2024/04/10 03:22:38;;;;;;;2.05;1.90;;;6.40;99.90;;;;;;5369442;26;20385;-38
2024/04/10 03:25:04;;;;;;;1.88;1.77;;;6.50;99.90;;;;;;5373914;26;19999;-34
2024/04/10 03:27:30;;;;;;;2.53;2.22;;;6.50;99.90;;;;;;5370426;26;20008;-36
2024/04/10 03:29:55;;;;;;;2.15;1.95;;;6.60;99.90;;;;;;5371092;26;20457;-33
2024/04/10 03:32:21;;;;;;;1.52;1.40;;;6.50;99.90;;;;;;5368946;26;19996;-36
2024/04/10 03:34:47;;;;;;;2.22;2.03;;;6.50;99.90;;;;;;5374353;26;20019;-34
2024/04/10 03:37:13;;;;;;;1.70;1.60;;;6.50;99.90;;;;;;5359910;26;20056;-34
2024/04/10 03:39:39;;;;;;;1.60;1.50;;;6.50;99.90;;;;;;5375325;26;20004;-35
2024/04/10 03:42:05;;;;;;;1.73;1.63;;;6.50;99.90;;;;;;5363071;26;20501;-32
2024/04/10 03:44:31;;;;;;;2.15;2.03;;;6.50;99.90;;;;;;5360894;26;20004;-33
2024/04/10 03:46:56;;;;;;;2.35;1.52;;;6.50;99.90;;;;;;5372794;26;20460;-32
2024/04/10 03:49:22;;;;;;;2.00;1.75;;;6.50;99.90;;;;;;5389194;26;20003;-36
2024/04/10 03:51:48;;;;;;;1.80;1.70;;;6.40;99.90;;;;;;5357438;26;20043;-32
2024/04/10 03:54:14;;;;;;;1.98;1.80;;;6.50;99.90;;;;;;5370254;26;20019;-35
2024/04/10 03:56:39;;;;;;;1.92;1.70;;;6.50;99.90;;;;;;5362296;26;19996;-35
2024/04/10 03:59:05;;;;;;;2.10;1.90;;;6.40;99.90;;;;;;5366605;26;20439;-33
2024/04/10 04:01:30;;;;;;;1.70;1.60;;;6.50;99.90;;;;;;5372709;26;20007;-35
2024/04/10 04:04:02;;;;;;;2.40;2.00;;;6.50;99.90;;;;;;5364410;26;20008;-33
2024/04/10 04:06:28;;;;;;;1.77;1.67;;;6.50;99.90;;;;;;5371698;26;20515;-37
2024/04/10 04:08:54;;;;;;;1.70;1.60;;;6.50;99.90;;;;;;5367897;26;20012;-32
2024/04/10 04:11:19;;;;;;;2.55;1.67;;;6.60;99.90;;;;;;5364597;26;20077;-39
2024/04/10 04:13:45;;;;;;;2.65;1.70;;;6.60;99.90;;;;;;5362995;26;20011;-33
2024/04/10 04:16:11;;;;;;;1.83;1.67;;;6.50;99.90;;;;;;5358723;26;20345;-34
2024/04/10 04:18:37;;;;;;;1.98;1.60;;;6.50;99.90;;;;;;5371973;26;20050;-34
2024/04/10 04:21:03;;;;;;;2.13;1.75;;;6.50;99.90;;;;;;5358807;26;20000;-32
2024/04/10 04:23:29;;;;;;;2.25;1.80;;;6.50;99.90;;;;;;5356389;26;20720;-34
2024/04/10 04:25:55;;;;;;;2.03;1.80;;;6.40;99.90;;;;;;5362549;26;20001;-32
2024/04/10 04:28:21;;;;;;;2.80;2.13;;;6.40;99.90;;;;;;5371906;26;20399;-37
2024/04/10 04:30:50;;;;;;;1.80;1.67;;;6.40;99.90;;;;;;5363588;26;20007;-36
2024/04/10 04:33:17;;;;;;;1.98;1.88;;;6.40;99.90;;;;;;5358651;26;20523;-34
2024/04/10 04:35:42;;;;;;;2.35;1.90;;;6.40;99.90;;;;;;5367742;26;20001;-32
2024/04/10 04:38:09;;;;;;;2.03;1.63;;;6.30;99.90;;;;;;5359070;26;20027;-35
2024/04/10 04:40:34;;;;;;;2.25;1.90;;;6.30;99.90;;;;;;5366357;26;20000;-41
2024/04/10 04:43:10;;;;;;;2.30;1.73;;;6.30;99.90;;;;;;5360241;26;21593;-38
2024/04/10 04:45:39;;;;;;;2.88;1.70;;;6.30;99.90;;;;;;5358990;26;19996;-40
2024/04/10 04:48:07;;;;;;;3.42;1.95;;;6.30;99.90;;;;;;5357291;26;20541;-42
2024/04/10 04:50:32;;;;;;;2.00;1.80;;;6.40;99.90;;;;;;5362616;26;20557;-38
2024/04/10 04:52:58;;;;;;;1.85;1.75;;;6.40;99.90;;;;;;5361823;26;20026;-41
2024/04/10 04:55:24;;;;;;;1.80;1.70;;;6.40;99.90;;;;;;5354410;26;20084;-38
2024/04/10 04:57:49;;;;;;;2.20;1.45;;;6.40;99.90;;;;;;5356936;26;20008;-39
2024/04/10 05:00:16;;;;;;;1.45;1.42;;;6.40;99.90;;;;;;5358954;26;19992;-32
2024/04/10 05:02:43;;;;;;;2.85;1.88;;;6.30;99.90;;;;;;5355705;26;20105;-34
2024/04/10 05:05:18;;;;;;;6.07;1.90;;;6.30;99.90;;;;;;5360127;26;20097;-34
2024/04/10 05:07:44;;;;;;;1.77;1.65;;;6.40;99.90;;;;;;5358828;26;20006;-32
2024/04/10 05:10:11;;;;;;;2.45;1.70;;;6.50;99.90;;;;;;5357200;26;20948;-34
2024/04/10 05:12:38;;;;;;;1.70;1.60;;;6.50;99.90;;;;;;5357624;26;19992;-33
2024/04/10 05:15:06;;;;;;;1.85;1.75;;;6.50;99.90;;;;;;5369763;26;20000;-37
2024/04/10 05:17:32;;;;;;;2.30;2.10;;;6.50;99.90;;;;;;5363243;26;20070;-37
2024/04/10 05:19:58;;;;;;;6.28;1.95;;;6.60;99.90;;;;;;5365307;26;20001;-32
2024/04/10 05:22:24;;;;;;;2.00;1.80;;;6.50;99.90;;;;;;5359919;26;20005;-34
2024/04/10 05:24:49;;;;;;;4.45;1.90;;;6.50;99.90;;;;;;5361533;26;20039;-38
2024/04/10 05:27:26;;;;;;;3.67;1.83;;;6.50;99.90;;;;;;5358043;26;20003;-37
2024/04/10 05:30:06;;;;;;;1.38;1.27;;;6.50;99.90;;;;;;5357565;26;19996;-37
2024/04/10 05:32:34;;;;;;;1.88;1.67;;;6.40;99.90;;;;;;5361281;26;20099;-32
2024/04/10 05:35:00;;;;;;;2.25;1.92;;;6.50;99.90;;;;;;5367914;26;20000;-32
2024/04/10 05:37:26;;;;;;;2.08;1.95;;;6.50;99.90;;;;;;5359318;26;20381;-32
2024/04/10 05:40:07;;;;;;;2.13;1.67;;;6.50;99.90;;;;;;5364502;26;20484;-35
2024/04/10 05:42:42;;;;;;;1.70;1.60;;;6.50;99.90;;;;;;5364549;26;20019;-35
2024/04/10 05:45:09;;;;;;;1.48;1.38;;;6.40;99.90;;;;;;5355420;26;19996;-34
2024/04/10 05:47:40;;;;;;;2.58;1.88;;;6.40;99.90;;;;;;5365416;26;20012;-32
2024/04/10 05:50:08;;;;;;;2.03;1.80;;;6.40;99.90;;;;;;5357734;26;20490;-35
2024/04/10 05:52:34;;;;;;;2.72;1.83;;;6.40;99.90;;;;;;5362842;26;20008;-34
2024/04/10 05:54:59;;;;;;;3.03;2.25;;;6.40;99.90;;;;;;5358744;26;20001;-33
2024/04/10 05:57:27;;;;;;;1.70;1.60;;;6.50;99.90;;;;;;5363469;26;20450;-33
2024/04/10 05:59:53;;;;;;;1.70;1.60;;;6.50;99.90;;;;;;5366390;26;20004;-32
2024/04/10 06:02:20;;;;;;;1.95;1.70;;;6.50;99.90;;;;;;5362335;26;19997;-33
2024/04/10 06:04:46;;;;;;;2.40;2.20;;;6.60;99.90;;;;;;5364962;26;19996;-33
2024/04/10 06:07:11;;;;;;;2.10;1.92;;;6.70;99.90;;;;;;5363971;26;20331;-35
2024/04/10 06:09:37;;;;;;;2.95;2.08;;;6.70;99.90;;;;;;5370642;26;20050;-34
2024/04/10 06:12:03;;;;;;;1.92;1.77;;;6.70;99.90;;;;;;5369019;26;20015;-37
2024/04/10 06:14:28;;;;;;;2.20;1.77;;;6.70;99.90;;;;;;5370405;26;20000;-33
2024/04/10 06:16:54;;;;;;;3.53;1.88;;;6.70;99.90;;;;;;5369917;26;20027;-34
2024/04/10 06:19:20;;;;;;;2.03;1.80;;;6.70;99.90;;;;;;5363522;26;20000;-39
2024/04/10 06:21:46;;;;;;;2.92;2.03;;;6.80;99.90;;;;;;5360488;26;20049;-33
2024/04/10 06:27:33;;;;;;;2.03;1.92;;;6.80;99.90;;;;;;5357723;26;20022;-37
2024/04/10 06:29:59;;;;;;;1.92;1.83;;;6.90;99.90;;;;;;5358042;26;20008;-34
2024/04/10 06:32:24;;;;;;;2.88;2.10;;;6.90;99.90;;;;;;5361758;26;20338;-34
2024/04/10 06:34:50;;;;;;;2.20;2.10;;;6.90;99.90;;;;;;5369323;26;20000;-38
2024/04/10 06:37:15;;;;;;;1.90;1.80;;;7.00;99.90;;;;;;5348585;26;20504;-37
2024/04/10 06:39:41;;;;;;;1.70;1.60;;;6.90;99.90;;;;;;5366451;26;20016;-33
2024/04/10 06:42:07;;;;;;;2.40;1.75;;;6.90;99.90;;;;;;5364637;26;20032;-34
2024/04/10 06:44:32;;;;;;;1.80;1.60;;;6.80;99.90;;;;;;5364104;26;20000;-35
2024/04/10 06:46:58;;;;;;;1.75;1.65;;;6.80;99.90;;;;;;5364398;26;20532;-33
2024/04/10 06:49:27;;;;;;;1.80;1.70;;;6.90;99.90;;;;;;5356156;26;20012;-36
2024/04/10 06:51:52;;;;;;;1.85;1.67;;;6.90;99.90;;;;;;5367766;26;20023;-34
2024/04/10 06:54:20;;;;;;;1.98;1.85;;;6.90;99.90;;;;;;5370278;26;20829;-32
2024/04/10 06:56:46;;;;;;;2.40;2.10;;;6.90;99.90;;;;;;5353268;26;20430;-33
2024/04/10 06:59:13;;;;;;;2.70;1.92;;;7.00;99.90;;;;;;5367289;26;20138;-41
2024/04/10 07:01:39;;;;;;;3.20;1.75;;;7.00;99.90;;;;;;5361327;26;20093;-40
2024/04/10 07:04:05;;;;;;;2.00;1.90;;;7.00;99.90;;;;;;5364087;26;20009;-41
2024/04/10 07:06:30;;;;;;;2.25;2.05;;;6.90;99.90;;;;;;5366644;26;20019;-37
2024/04/10 07:08:56;;;;;;;1.90;1.80;;;6.90;99.90;;;;;;5359908;26;20008;-39
2024/04/10 07:11:22;;;;;;;1.80;1.52;;;6.90;99.90;;;;;;5361067;26;20025;-40
2024/04/10 07:13:53;;;;;;;2.33;2.00;;;6.90;99.90;;;;;;5358250;26;20004;-42
2024/04/10 07:16:30;;;;;;;2.42;1.77;;;7.00;99.90;;;;;;5365550;26;20016;-44
2024/04/10 07:18:56;;;;;;;3.17;1.48;;;7.00;99.90;;;;;;5359303;26;20000;-35
2024/04/10 07:21:22;;;;;;;2.20;2.00;;;7.00;99.90;;;;;;5366830;26;20001;-35
2024/04/10 07:23:48;;;;;;;2.58;1.98;;;7.10;99.90;;;;;;5362438;26;20036;-32
2024/04/10 07:26:20;;;;;;;1.60;1.50;;;7.20;99.90;;;;;;5359629;26;19996;-33
2024/04/10 07:28:51;;;;;;;2.38;1.90;;;7.10;99.90;;;;;;5366284;26;20004;-33
2024/04/10 07:31:34;;;;;;;2.65;2.08;;;7.20;99.90;;;;;;5360852;26;20001;-32
2024/04/10 07:34:01;;;;;;;3.03;2.13;;;7.30;99.90;;;;;;5362629;26;20004;-33
2024/04/10 07:36:27;;;;;;;2.10;1.90;;;7.40;99.90;;;;;;5358321;26;20385;-33
2024/04/10 07:38:57;;;;;;;2.15;1.90;;;7.40;99.90;;;;;;5363801;26;20077;-33
2024/04/10 07:41:24;;;;;;;3.10;1.70;;;7.40;99.90;;;;;;5359044;26;20362;-35
2024/04/10 07:43:50;;;;;;;1.80;1.65;;;7.50;99.90;;;;;;5363985;26;20008;-34
2024/04/10 07:46:17;;;;;;;2.20;1.90;;;7.40;99.90;;;;;;5367037;26;20357;-33
2024/04/10 07:48:46;;;;;;;2.13;1.90;;;7.50;99.90;;;;;;5349439;26;20020;-32
2024/04/10 07:51:15;;;;;;;2.70;1.90;;;7.50;99.90;;;;;;5365514;26;20481;-33
2024/04/10 07:53:41;;;;;;;2.13;1.77;;;7.60;99.90;;;;;;5362250;26;20047;-33
2024/04/10 07:56:08;;;;;;;3.00;2.05;;;7.60;99.90;;;;;;5359205;26;20023;-36
2024/04/10 07:58:35;;;;;;;2.40;1.25;;;7.70;99.90;;;;;;5360809;26;20014;-33
2024/04/10 08:01:02;;;;;;;2.85;1.10;;;7.60;99.90;;;;;;5365239;26;20008;-32
2024/04/10 08:03:29;;;;;;;1.45;1.27;;;7.50;99.90;;;;;;5363421;26;19997;-35
2024/04/10 08:05:57;;;;;;;2.85;2.65;;;7.40;99.90;;;;;;5357427;26;20438;-33
2024/04/10 08:08:22;;;;;;;1.77;0.95;;;7.50;99.90;;;;;;5369024;26;20024;-33
2024/04/10 08:10:57;;;;;;;5.50;2.58;;;7.50;99.90;;;;;;5367084;26;20011;-35
2024/04/10 08:13:23;;;;;;;4.07;2.05;;;7.60;99.90;;;;;;5358059;26;20361;-33
2024/04/10 08:15:56;;;;;;;1.98;1.77;;;7.60;99.90;;;;;;5365157;26;20034;-40
2024/04/10 08:18:21;;;;;;;3.33;2.33;;;7.60;99.90;;;;;;5368318;26;20004;-38
2024/04/10 08:20:47;;;;;;;4.13;1.58;;;7.60;99.90;;;;;;5357734;26;19996;-34
2024/04/10 08:23:13;;;;;;;1.80;1.70;;;7.70;99.90;;;;;;5360935;26;21598;-33
2024/04/10 08:25:40;;;;;;;5.30;2.28;;;7.60;99.90;;;;;;5362102;26;20002;-34
2024/04/10 08:28:06;;;;;;;3.03;1.92;;;7.70;99.90;;;;;;5366403;26;20108;-33
2024/04/10 08:30:31;;;;;;;1.75;1.58;;;7.70;99.90;;;;;;5360782;26;20019;-35
2024/04/10 08:32:58;;;;;;;1.90;1.63;;;7.90;99.90;;;;;;5359626;26;20008;-33
2024/04/10 08:35:23;;;;;;;3.50;2.15;;;7.80;99.90;;;;;;5357994;26;20141;-34
2024/04/10 08:37:52;;;;;;;3.60;2.00;;;7.90;99.90;;;;;;5355729;26;20009;-37
2024/04/10 08:40:17;;;;;;;;;;;7.90;99.90;;;;;;5368963;26;20105;-32
2024/04/10 08:42:48;;;;;;;2.58;2.15;;;8.00;99.90;;;;;;5363656;26;19948;-33
2024/04/10 08:45:19;;;;;;;1.13;1.00;;;8.00;99.90;;;;;;5362395;26;20022;-33
2024/04/10 08:47:45;;;;;;;3.05;1.70;;;8.10;99.90;;;;;;5366174;26;20013;-33
2024/04/10 08:50:11;;;;;;;1.73;1.60;;;8.00;99.90;;;;;;5355403;26;20000;-37
2024/04/10 08:52:39;;;;;;;2.30;1.17;;;8.00;99.90;;;;;;5360467;26;20371;-38
2024/04/10 08:55:05;;;;;;;2.67;1.75;;;8.00;99.90;;;;;;5362102;26;20460;-34
2024/04/10 08:57:31;;;;;;;2.60;1.70;;;8.20;99.90;;;;;;5361879;26;20019;-34
2024/04/10 08:59:57;;;;;;;3.58;2.40;;;8.40;99.90;;;;;;5360945;26;19996;-33
2024/04/10 09:02:22;;;;;;;6.50;2.60;;;8.50;99.90;;;;;;5364714;26;20019;-35
2024/04/10 09:04:48;;;;;;;1.75;1.52;;;8.70;99.90;;;;;;5368679;26;20032;-35
2024/04/10 09:07:18;;;;;;;10.80;2.42;;;8.50;99.90;;;;;;5366603;26;20812;-34
2024/04/10 09:09:44;;;;;;;2.35;1.58;;;8.50;99.90;;;;;;5364254;26;19996;-34
2024/04/10 09:12:21;;;;;;;1.88;1.55;;;8.60;99.90;;;;;;5362996;26;19997;-32
2024/04/10 09:14:47;;;;;;;3.47;2.53;;;8.70;99.90;;;;;;5364155;26;20773;-32
2024/04/10 09:17:16;;;;;;;5.85;2.45;;;8.80;99.90;;;;;;5363643;26;20227;-32
2024/04/10 09:19:42;;;;;;;2.97;2.40;;;8.90;99.90;;;;;;5364168;26;20023;-35
2024/04/10 09:22:10;;;;;;;3.17;1.50;;;9.10;99.90;;;;;;5360042;26;20044;-32
2024/04/10 09:24:36;;;;;;;2.60;2.30;;;8.90;99.90;;;;;;5363784;26;20004;-33
2024/04/10 09:27:10;;;;;;;5.45;2.17;;;9.00;99.90;;;;;;5364936;26;20012;-34
2024/04/10 09:29:35;;;;;;;3.92;2.33;;;9.30;99.90;;;;;;5361473;26;20026;-35
2024/04/10 09:32:08;;;;;;;7.03;2.47;;;9.40;99.90;;;;;;5364678;26;20016;-33
2024/04/10 09:34:34;;;;;;;3.60;1.42;;;9.50;99.90;;;;;;5360687;26;20044;-34
2024/04/10 09:37:01;;;;;;;2.88;1.80;;;9.40;99.90;;;;;;5361353;26;20010;-32
2024/04/10 09:39:27;;;;;;;4.55;2.10;;;9.60;99.90;;;;;;5359308;26;20681;-36
2024/04/10 09:42:03;;;;;;;3.67;2.28;;;9.80;99.90;;;;;;5361316;26;20008;-34
2024/04/10 09:44:32;;;;;;;2.00;1.90;;;10.00;99.90;;;;;;5359747;26;20532;-34
2024/04/10 09:46:59;;;;;;;3.60;2.17;;;9.90;99.90;;;;;;5388748;26;19996;-32
2024/04/10 09:49:41;;;;;;;5.03;2.08;;;10.00;99.90;;;;;;5358953;26;20508;-33
2024/04/10 09:52:09;;;;;;;3.33;1.70;;;10.20;99.90;;;;;;5351863;26;20008;-35
2024/04/10 09:54:36;;;;;;;2.25;1.88;;;10.30;99.90;;;;;;5357720;26;20523;-33
2024/04/10 09:57:01;;;;;;;3.13;2.08;;;10.50;99.90;;;;;;5354203;26;20460;-33
2024/04/10 09:59:28;;;;;;;2.95;1.98;;;10.30;99.90;;;;;;5362389;26;20000;-34
2024/04/10 10:02:04;;;;;;;5.05;2.03;;;10.40;99.90;;;;;;5356697;26;20051;-36
2024/04/10 10:04:39;;;;;;;5.57;1.98;;;10.50;99.90;;;;;;5352947;26;20323;-31
2024/04/10 10:07:05;;;;;;;4.40;1.40;;;10.30;99.90;;;;;;5352580;26;20011;-34
2024/04/10 10:09:30;;;;;;;3.15;1.60;;;9.90;99.90;;;;;;5383077;26;20001;-32
2024/04/10 10:11:57;;;;;;;3.47;1.90;;;9.90;99.90;;;;;;5359674;26;20001;-34
2024/04/10 10:14:27;;;;;;;2.25;2.00;;;10.00;99.90;;;;;;5360644;26;20007;-37
2024/04/10 10:17:07;;;;;;;2.35;1.55;;;10.20;99.90;;;;;;5351343;26;20448;-35
2024/04/10 10:19:36;;;;;;;6.03;1.80;;;10.40;99.90;;;;;;5364109;26;20008;-35
2024/04/10 10:22:03;;;;;;;2.03;1.35;;;10.60;99.90;;;;;;5353736;26;20010;-33
2024/04/10 10:24:29;;;;;;;2.40;1.50;;;10.70;99.90;;;;;;5361720;26;19997;-33
2024/04/10 10:27:01;;;;;;;2.70;1.70;;;10.80;99.90;;;;;;5362697;26;19997;-34
2024/04/10 10:29:30;;;;;;;4.28;1.50;;;10.80;99.90;;;;;;5356390;26;20317;-37
2024/04/10 10:32:03;;;;;;;3.65;2.00;;;10.60;99.90;;;;;;5360006;26;20011;-34
2024/04/10 10:34:28;;;;;;;1.30;1.13;;;10.50;99.90;;;;;;5367987;26;20319;-34
2024/04/10 10:36:54;;;;;;;1.67;1.40;;;10.70;99.90;;;;;;5365549;26;20050;-35
2024/04/10 10:39:20;;;;;;;4.05;1.50;;;10.70;99.90;;;;;;5364323;26;20000;-37
2024/04/10 10:41:46;;;;;;;2.92;1.48;;;10.60;99.90;;;;;;5365247;26;20572;-37
2024/04/10 10:44:21;;;;;;;2.53;1.52;;;10.50;99.90;;;;;;5361799;26;19996;-33
2024/04/10 10:46:46;;;;;;;3.92;2.10;;;10.60;99.90;;;;;;5354640;26;20001;-31
2024/04/10 10:49:12;;;;;;;2.47;1.55;;;10.60;99.90;;;;;;5349729;26;20604;-36
2024/04/10 10:51:37;;;;;;;2.92;1.67;;;10.60;99.90;;;;;;5365205;26;20004;-35
2024/04/10 10:54:03;;;;;;;3.75;1.63;;;10.90;99.90;;;;;;5354093;26;20001;-35
2024/04/10 10:56:32;;;;;;;6.65;1.70;;;10.80;99.90;;;;;;5363065;26;20008;-34
2024/04/10 10:59:10;;;;;;;4.40;1.70;;;10.70;99.90;;;;;;5358109;26;20001;-35
2024/04/10 11:01:36;;;;;;;4.22;1.45;;;10.60;99.90;;;;;;5362281;26;20052;-33
2024/04/10 11:04:13;;;;;;;2.85;1.55;;;10.90;99.90;;;;;;5365666;26;20014;-33
2024/04/10 11:06:38;;;;;;;3.10;1.60;;;11.10;99.90;;;;;;5366166;26;20884;-36
2024/04/10 11:09:10;;;;;;;2.90;1.30;;;11.20;99.90;;;;;;5365174;26;20012;-34
2024/04/10 11:11:37;;;;;;;5.00;2.05;;;11.00;98.60;;;;;;5356571;26;20035;-34
2024/04/10 11:14:03;;;;;;;3.60;1.30;;;11.00;99.80;;;;;;5361273;26;20001;-32
2024/04/10 11:16:33;;;;;;;2.45;1.20;;;11.10;98.10;;;;;;5364573;26;20070;-35
2024/04/10 11:19:00;;;;;;;2.58;1.35;;;11.20;94.90;;;;;;5360133;26;19996;-35
2024/04/10 11:21:26;;;;;;;1.70;1.02;;;11.20;97.20;;;;;;5355001;26;19996;-36
2024/04/10 11:23:52;;;;;;;1.23;1.00;;;11.30;98.80;;;;;;5358348;26;20476;-32
2024/04/10 11:26:17;;;;;;;3.38;1.35;;;11.40;98.00;;;;;;5359954;26;20323;-33
2024/04/10 11:28:44;;;;;;;4.82;2.03;;;11.60;95.00;;;;;;5363632;26;20086;-32
2024/04/10 11:31:10;;;;;;;3.90;1.25;;;11.40;93.00;;;;;;5364690;26;20006;-33
2024/04/10 11:33:36;;;;;;;3.30;1.40;;;11.30;93.60;;;;;;5363101;26;20008;-33
2024/04/10 11:36:03;;;;;;;2.45;1.33;;;11.00;85.80;;;;;;5358070;26;20000;-33
2024/04/10 11:38:29;;;;;;;2.50;1.20;;;11.00;82.30;;;;;;5357179;26;20013;-40
2024/04/10 11:40:55;;;;;;;4.05;1.42;;;11.00;91.20;;;;;;5360366;26;20501;-43
2024/04/10 11:43:21;;;;;;;2.35;1.00;;;11.40;85.90;;;;;;5353055;26;20000;-37
2024/04/10 11:45:46;;;;;;;2.95;1.20;;;11.80;83.40;;;;;;5361123;26;20000;-38
2024/04/10 11:48:12;;;;;;;2.45;1.85;;;12.20;92.80;;;;;;5363367;26;20544;-38
2024/04/10 11:50:38;;;;;;;5.85;1.50;;;12.40;99.70;;;;;;5349236;26;20004;-40
2024/04/10 11:53:04;;;;;;;3.40;1.20;;;12.70;93.90;;;;;;5357941;26;20353;-42
2024/04/10 11:55:30;;;;;;;2.75;1.15;;;12.90;92.20;;;;;;5350670;26;20001;-38
2024/04/10 11:57:56;;;;;;;2.50;1.38;;;12.40;90.90;;;;;;5356505;26;22507;-41
2024/04/10 12:00:22;;;;;;;3.70;1.10;;;11.80;91.60;;;;;;5355707;26;20105;-40
2024/04/10 12:02:48;;;;;;;0.90;0.90;;;11.50;92.90;;;;;;5357114;26;20543;-41
2024/04/10 12:05:13;;;;;;;3.60;1.55;;;11.50;79.60;;;;;;5361970;26;19996;-40
2024/04/10 12:07:41;;;;;;;3.40;1.30;;;11.60;94.60;;;;;;5357405;26;20792;-40
2024/04/10 12:10:08;;;;;;;4.37;1.10;;;12.00;94.40;;;;;;5362487;26;20015;-37
2024/04/10 12:12:34;;;;;;;4.47;1.17;;;12.30;91.40;;;;;;5385066;26;20014;-36
2024/04/10 12:15:00;;;;;;;0.88;0.80;;;12.80;83.70;;;;;;5359879;26;20484;-40
2024/04/10 12:17:26;;;;;;;2.22;1.08;;;13.20;82.00;;;;;;5359142;26;20899;-40
2024/04/10 12:19:52;;;;;;;1.70;1.00;;;13.30;92.90;;;;;;5361014;26;20428;-40
2024/04/10 12:22:17;;;;;;;3.47;1.25;;;13.40;82.10;;;;;;5357303;26;20012;-39
2024/04/10 12:24:43;;;;;;;3.25;1.10;;;12.90;80.00;;;;;;5352144;26;20460;-37
2024/04/10 12:27:09;;;;;;;1.55;1.10;;;12.90;86.10;;;;;;5361603;26;20008;-39
2024/04/10 12:29:34;;;;;;;4.05;1.25;;;13.10;81.90;;;;;;5360793;26;19992;-40
2024/04/10 12:32:01;;;;;;;1.80;1.00;;;13.20;80.00;;;;;;5360015;26;20000;-40
2024/04/10 12:34:27;;;;;;;2.97;1.17;;;13.40;83.80;;;;;;5366217;26;20008;-40
2024/04/10 12:39:37;;;;;;;2.45;1.30;;;13.50;83.50;;;;;;5357691;26;20081;-39
2024/04/10 12:42:04;;;;;;;2.65;0.93;;;13.20;85.20;;;;;;5359848;26;19996;-41
2024/04/10 12:44:30;;;;;;;2.78;1.17;;;13.10;78.10;;;;;;5363881;26;20679;-39
2024/04/10 12:46:58;;;;;;;3.30;1.00;;;13.00;78.80;;;;;;5353052;26;20128;-40
2024/04/10 12:49:28;;;;;;;2.83;1.25;;;12.60;77.20;;;;;;5361644;26;19996;-39
2024/04/10 12:51:54;;;;;;;2.58;1.20;;;12.60;80.40;;;;;;5364193;26;20000;-40
2024/04/10 12:54:21;;;;;;;1.25;0.90;;;12.60;78.70;;;;;;5362925;26;20010;-36
2024/04/10 12:56:46;;;;;;;0.90;0.70;;;12.60;81.80;;;;;;5364775;26;20414;-34
2024/04/10 12:59:12;;;;;;;2.05;0.80;;;12.70;84.10;;;;;;5362948;26;20037;-39
2024/04/10 13:01:38;;;;;;;1.85;0.95;;;12.70;79.00;;;;;;5360375;26;19996;-39